sensor_id;sensor_type;location;lat;lon;timestamp;temperature;humidity
35962;DHT22;22044;48.298;10.008;2022-07-23T00:02:26;23.10;99.90
35962;DHT22;22044;48.298;10.008;2022-07-23T00:05:12;23.00;99.90
35962;DHT22;22044;48.298;10.008;2022-07-23T00:07:59;22.70;99.90
35962;DHT22;22044;48.298;10.008;2022-07-23T00:10:44;22.60;99.90
35962;DHT22;22044;48.298;10.008;2022-07-23T00:13:30;22.60;99.90
35962;DHT22;22044;48.298;10.008;2022-07-23T00:16:15;22.50;99.90
35962;DHT22;22044;48.298;10.008;2022-07-23T00:19:01;22.20;99.90
35962;DHT22;22044;48.298;10.008;2022-07-23T00:21:48;21.60;99.90
35962;DHT22;22044;48.298;10.008;2022-07-23T00:24:35;20.90;99.90
35962;DHT22;22044;48.298;10.008;2022-07-23T00:27:21;20.60;99.90
35962;DHT22;22044;48.298;10.008;2022-07-23T00:30:08;20.40;99.90
35962;DHT22;22044;48.298;10.008;2022-07-23T00:32:55;20.40;99.90
35962;DHT22;22044;48.298;10.008;2022-07-23T00:35:41;20.60;99.90
35962;DHT22;22044;48.298;10.008;2022-07-23T00:38:26;20.70;99.90
35962;DHT22;22044;48.298;10.008;2022-07-23T00:41:13;20.70;99.90
35962;DHT22;22044;48.298;10.008;2022-07-23T00:44:15;20.40;99.90
35962;DHT22;22044;48.298;10.008;2022-07-23T00:47:00;19.60;99.90
35962;DHT22;22044;48.298;10.008;2022-07-23T00:49:46;19.50;99.90
35962;DHT22;22044;48.298;10.008;2022-07-23T00:52:32;19.80;99.90
35962;DHT22;22044;48.298;10.008;2022-07-23T00:55:18;20.10;99.90
35962;DHT22;22044;48.298;10.008;2022-07-23T00:58:06;20.20;99.90
35962;DHT22;22044;48.298;10.008;2022-07-23T01:00:52;19.70;99.90
35962;DHT22;22044;48.298;10.008;2022-07-23T01:03:38;19.20;99.90
35962;DHT22;22044;48.298;10.008;2022-07-23T01:06:24;19.10;99.90
35962;DHT22;22044;48.298;10.008;2022-07-23T01:09:09;18.90;99.90
35962;DHT22;22044;48.298;10.008;2022-07-23T01:11:56;18.80;99.90
35962;DHT22;22044;48.298;10.008;2022-07-23T01:14:43;18.70;99.90
35962;DHT22;22044;48.298;10.008;2022-07-23T01:17:29;18.60;99.90
35962;DHT22;22044;48.298;10.008;2022-07-23T01:20:15;18.50;99.90
35962;DHT22;22044;48.298;10.008;2022-07-23T01:23:02;18.30;99.90
35962;DHT22;22044;48.298;10.008;2022-07-23T01:25:48;18.20;99.90
35962;DHT22;22044;48.298;10.008;2022-07-23T01:28:34;18.30;99.90
35962;DHT22;22044;48.298;10.008;2022-07-23T01:31:21;18.30;99.90
35962;DHT22;22044;48.298;10.008;2022-07-23T01:34:07;18.40;99.90
35962;DHT22;22044;48.298;10.008;2022-07-23T01:36:54;18.40;99.90
35962;DHT22;22044;48.298;10.008;2022-07-23T01:39:41;18.40;99.90
35962;DHT22;22044;48.298;10.008;2022-07-23T01:42:27;18.40;99.90
35962;DHT22;22044;48.298;10.008;2022-07-23T01:45:12;18.40;99.90
35962;DHT22;22044;48.298;10.008;2022-07-23T01:48:02;18.40;99.90
35962;DHT22;22044;48.298;10.008;2022-07-23T01:50:50;18.50;99.90
35962;DHT22;22044;48.298;10.008;2022-07-23T01:53:39;18.50;99.90
35962;DHT22;22044;48.298;10.008;2022-07-23T01:56:26;18.50;99.90
35962;DHT22;22044;48.298;10.008;2022-07-23T01:59:11;18.70;99.90
35962;DHT22;22044;48.298;10.008;2022-07-23T02:01:57;18.80;99.90
35962;DHT22;22044;48.298;10.008;2022-07-23T02:04:43;19.00;99.90
35962;DHT22;22044;48.298;10.008;2022-07-23T02:07:29;19.20;99.90
35962;DHT22;22044;48.298;10.008;2022-07-23T02:10:17;19.20;99.90
35962;DHT22;22044;48.298;10.008;2022-07-23T02:13:04;19.00;99.90
35962;DHT22;22044;48.298;10.008;2022-07-23T02:15:49;19.00;99.90
35962;DHT22;22044;48.298;10.008;2022-07-23T02:18:36;19.00;99.90
35962;DHT22;22044;48.298;10.008;2022-07-23T02:21:22;19.10;99.90
35962;DHT22;22044;48.298;10.008;2022-07-23T02:24:08;18.80;99.90
35962;DHT22;22044;48.298;10.008;2022-07-23T02:26:55;18.70;99.90
35962;DHT22;22044;48.298;10.008;2022-07-23T02:29:42;18.80;99.90
35962;DHT22;22044;48.298;10.008;2022-07-23T02:32:27;18.90;99.90
35962;DHT22;22044;48.298;10.008;2022-07-23T02:35:13;19.00;99.90
35962;DHT22;22044;48.298;10.008;2022-07-23T02:37:59;19.10;99.90
35962;DHT22;22044;48.298;10.008;2022-07-23T02:40:47;19.30;99.90
35962;DHT22;22044;48.298;10.008;2022-07-23T02:43:33;19.60;99.90
35962;DHT22;22044;48.298;10.008;2022-07-23T02:46:20;19.70;99.90
35962;DHT22;22044;48.298;10.008;2022-07-23T02:49:06;19.70;99.90
35962;DHT22;22044;48.298;10.008;2022-07-23T02:51:51;19.70;99.90
35962;DHT22;22044;48.298;10.008;2022-07-23T02:54:37;19.60;99.90
35962;DHT22;22044;48.298;10.008;2022-07-23T02:57:23;19.00;99.90
35962;DHT22;22044;48.298;10.008;2022-07-23T03:00:10;18.70;99.90
35962;DHT22;22044;48.298;10.008;2022-07-23T03:02:58;18.90;99.90
35962;DHT22;22044;48.298;10.008;2022-07-23T03:05:44;19.10;99.90
35962;DHT22;22044;48.298;10.008;2022-07-23T03:08:30;19.30;99.90
35962;DHT22;22044;48.298;10.008;2022-07-23T03:11:15;19.20;99.90
35962;DHT22;22044;48.298;10.008;2022-07-23T03:14:01;19.10;99.90
35962;DHT22;22044;48.298;10.008;2022-07-23T03:16:47;19.30;99.90
35962;DHT22;22044;48.298;10.008;2022-07-23T03:19:35;19.40;99.90
35962;DHT22;22044;48.298;10.008;2022-07-23T03:22:21;19.50;99.90
35962;DHT22;22044;48.298;10.008;2022-07-23T03:25:08;19.10;99.90
35962;DHT22;22044;48.298;10.008;2022-07-23T03:27:54;18.90;99.90
35962;DHT22;22044;48.298;10.008;2022-07-23T03:30:40;18.70;99.90
35962;DHT22;22044;48.298;10.008;2022-07-23T03:33:26;18.70;99.90
35962;DHT22;22044;48.298;10.008;2022-07-23T03:36:13;18.90;99.90
35962;DHT22;22044;48.298;10.008;2022-07-23T03:39:03;19.10;99.90
35962;DHT22;22044;48.298;10.008;2022-07-23T03:41:49;19.30;99.90
35962;DHT22;22044;48.298;10.008;2022-07-23T03:44:34;19.40;99.90
35962;DHT22;22044;48.298;10.008;2022-07-23T03:47:22;19.60;99.90
35962;DHT22;22044;48.298;10.008;2022-07-23T03:50:08;19.60;99.90
35962;DHT22;22044;48.298;10.008;2022-07-23T03:52:55;19.60;99.90
35962;DHT22;22044;48.298;10.008;2022-07-23T03:55:41;19.80;99.90
35962;DHT22;22044;48.298;10.008;2022-07-23T03:58:27;19.80;99.90
35962;DHT22;22044;48.298;10.008;2022-07-23T04:01:12;19.80;99.90
35962;DHT22;22044;48.298;10.008;2022-07-23T04:03:58;19.90;99.90
35962;DHT22;22044;48.298;10.008;2022-07-23T04:06:44;19.80;99.90
35962;DHT22;22044;48.298;10.008;2022-07-23T04:09:31;20.00;99.90
35962;DHT22;22044;48.298;10.008;2022-07-23T04:12:17;19.80;99.90
35962;DHT22;22044;48.298;10.008;2022-07-23T04:15:03;19.70;99.90
35962;DHT22;22044;48.298;10.008;2022-07-23T04:17:49;19.10;99.90
35962;DHT22;22044;48.298;10.008;2022-07-23T04:20:37;18.20;99.90
35962;DHT22;22044;48.298;10.008;2022-07-23T04:23:23;18.00;99.90
35962;DHT22;22044;48.298;10.008;2022-07-23T04:26:10;18.10;99.90
35962;DHT22;22044;48.298;10.008;2022-07-23T04:28:55;18.40;99.90
35962;DHT22;22044;48.298;10.008;2022-07-23T04:31:41;18.80;99.90
35962;DHT22;22044;48.298;10.008;2022-07-23T04:34:27;19.00;99.90
35962;DHT22;22044;48.298;10.008;2022-07-23T04:37:13;19.00;99.90
35962;DHT22;22044;48.298;10.008;2022-07-23T04:39:59;19.00;99.90
35962;DHT22;22044;48.298;10.008;2022-07-23T04:42:46;19.10;99.90
35962;DHT22;22044;48.298;10.008;2022-07-23T04:45:32;18.90;99.90
35962;DHT22;22044;48.298;10.008;2022-07-23T04:48:17;18.40;99.90
35962;DHT22;22044;48.298;10.008;2022-07-23T04:51:05;18.10;99.90
35962;DHT22;22044;48.298;10.008;2022-07-23T04:53:53;18.10;99.90
35962;DHT22;22044;48.298;10.008;2022-07-23T04:56:39;18.30;99.90
35962;DHT22;22044;48.298;10.008;2022-07-23T04:59:26;18.50;99.90
35962;DHT22;22044;48.298;10.008;2022-07-23T05:02:17;18.70;99.90
35962;DHT22;22044;48.298;10.008;2022-07-23T05:05:03;18.80;99.90
35962;DHT22;22044;48.298;10.008;2022-07-23T05:07:49;19.00;99.90
35962;DHT22;22044;48.298;10.008;2022-07-23T05:10:36;19.10;99.90
35962;DHT22;22044;48.298;10.008;2022-07-23T05:13:22;19.20;99.90
35962;DHT22;22044;48.298;10.008;2022-07-23T05:16:13;19.30;99.90
35962;DHT22;22044;48.298;10.008;2022-07-23T05:19:00;19.20;99.90
35962;DHT22;22044;48.298;10.008;2022-07-23T05:21:46;19.10;99.90
35962;DHT22;22044;48.298;10.008;2022-07-23T05:24:32;18.60;99.90
35962;DHT22;22044;48.298;10.008;2022-07-23T05:27:18;18.70;99.90
35962;DHT22;22044;48.298;10.008;2022-07-23T05:30:04;18.90;99.90
35962;DHT22;22044;48.298;10.008;2022-07-23T05:32:54;19.00;99.90
35962;DHT22;22044;48.298;10.008;2022-07-23T05:35:40;19.10;99.90
35962;DHT22;22044;48.298;10.008;2022-07-23T05:38:55;19.10;99.90
35962;DHT22;22044;48.298;10.008;2022-07-23T05:41:41;19.20;99.90
35962;DHT22;22044;48.298;10.008;2022-07-23T05:44:26;19.20;99.90
35962;DHT22;22044;48.298;10.008;2022-07-23T05:47:12;19.10;99.90
35962;DHT22;22044;48.298;10.008;2022-07-23T05:50:00;18.90;99.90
35962;DHT22;22044;48.298;10.008;2022-07-23T05:52:58;18.50;99.90
35962;DHT22;22044;48.298;10.008;2022-07-23T05:56:10;18.40;99.90
35962;DHT22;22044;48.298;10.008;2022-07-23T05:58:56;18.20;99.90
35962;DHT22;22044;48.298;10.008;2022-07-23T06:01:42;18.20;99.90
35962;DHT22;22044;48.298;10.008;2022-07-23T06:04:29;18.20;99.90
35962;DHT22;22044;48.298;10.008;2022-07-23T06:07:34;18.20;99.90
35962;DHT22;22044;48.298;10.008;2022-07-23T06:10:20;18.30;99.90
35962;DHT22;22044;48.298;10.008;2022-07-23T06:13:06;18.10;99.90
35962;DHT22;22044;48.298;10.008;2022-07-23T06:15:52;18.10;99.90
35962;DHT22;22044;48.298;10.008;2022-07-23T06:18:39;18.40;99.90
35962;DHT22;22044;48.298;10.008;2022-07-23T06:21:26;18.70;99.90
35962;DHT22;22044;48.298;10.008;2022-07-23T06:24:13;18.90;99.90
35962;DHT22;22044;48.298;10.008;2022-07-23T06:26:59;19.20;99.90
35962;DHT22;22044;48.298;10.008;2022-07-23T06:29:45;19.10;99.90
35962;DHT22;22044;48.298;10.008;2022-07-23T06:32:30;19.00;99.90
35962;DHT22;22044;48.298;10.008;2022-07-23T06:35:17;19.10;99.90
35962;DHT22;22044;48.298;10.008;2022-07-23T06:38:05;19.10;99.90
35962;DHT22;22044;48.298;10.008;2022-07-23T06:40:52;19.30;99.90
35962;DHT22;22044;48.298;10.008;2022-07-23T06:43:38;19.40;99.90
35962;DHT22;22044;48.298;10.008;2022-07-23T06:46:26;19.40;99.90
35962;DHT22;22044;48.298;10.008;2022-07-23T06:49:12;19.50;99.90
35962;DHT22;22044;48.298;10.008;2022-07-23T06:51:57;19.70;99.90
35962;DHT22;22044;48.298;10.008;2022-07-23T06:54:43;19.60;99.90
35962;DHT22;22044;48.298;10.008;2022-07-23T06:57:30;19.70;99.90
35962;DHT22;22044;48.298;10.008;2022-07-23T07:00:17;19.80;99.90
35962;DHT22;22044;48.298;10.008;2022-07-23T07:03:02;19.80;99.90
35962;DHT22;22044;48.298;10.008;2022-07-23T07:05:48;19.30;99.90
35962;DHT22;22044;48.298;10.008;2022-07-23T07:08:34;18.80;99.90
35962;DHT22;22044;48.298;10.008;2022-07-23T07:11:19;19.00;99.90
35962;DHT22;22044;48.298;10.008;2022-07-23T07:14:06;19.30;99.90
35962;DHT22;22044;48.298;10.008;2022-07-23T07:16:53;19.40;99.90
35962;DHT22;22044;48.298;10.008;2022-07-23T07:19:38;19.60;99.90
35962;DHT22;22044;48.298;10.008;2022-07-23T07:22:24;19.80;99.90
35962;DHT22;22044;48.298;10.008;2022-07-23T07:25:09;20.00;99.90
35962;DHT22;22044;48.298;10.008;2022-07-23T07:27:55;20.20;99.90
35962;DHT22;22044;48.298;10.008;2022-07-23T07:30:42;20.30;99.90
35962;DHT22;22044;48.298;10.008;2022-07-23T07:33:28;20.40;99.90
35962;DHT22;22044;48.298;10.008;2022-07-23T07:36:14;20.40;99.90
35962;DHT22;22044;48.298;10.008;2022-07-23T07:39:00;20.60;99.90
35962;DHT22;22044;48.298;10.008;2022-07-23T07:41:45;20.80;99.90
35962;DHT22;22044;48.298;10.008;2022-07-23T07:44:31;20.90;99.90
35962;DHT22;22044;48.298;10.008;2022-07-23T07:47:18;21.00;99.90
35962;DHT22;22044;48.298;10.008;2022-07-23T07:50:05;21.20;99.90
35962;DHT22;22044;48.298;10.008;2022-07-23T07:52:52;21.30;99.90
35962;DHT22;22044;48.298;10.008;2022-07-23T07:55:37;21.20;99.90
35962;DHT22;22044;48.298;10.008;2022-07-23T07:58:23;21.40;99.90
35962;DHT22;22044;48.298;10.008;2022-07-23T08:01:08;21.50;99.90
35962;DHT22;22044;48.298;10.008;2022-07-23T08:03:56;21.60;99.90
35962;DHT22;22044;48.298;10.008;2022-07-23T08:06:41;21.70;99.90
35962;DHT22;22044;48.298;10.008;2022-07-23T08:09:27;21.90;99.90
35962;DHT22;22044;48.298;10.008;2022-07-23T08:12:12;22.00;99.90
35962;DHT22;22044;48.298;10.008;2022-07-23T08:14:58;22.10;99.90
35962;DHT22;22044;48.298;10.008;2022-07-23T08:17:45;22.20;99.90
35962;DHT22;22044;48.298;10.008;2022-07-23T08:20:32;22.30;99.90
35962;DHT22;22044;48.298;10.008;2022-07-23T08:23:18;22.40;99.90
35962;DHT22;22044;48.298;10.008;2022-07-23T08:26:04;22.50;99.90
35962;DHT22;22044;48.298;10.008;2022-07-23T08:28:49;22.60;99.90
35962;DHT22;22044;48.298;10.008;2022-07-23T08:31:35;22.70;99.90
35962;DHT22;22044;48.298;10.008;2022-07-23T08:34:21;22.90;99.90
35962;DHT22;22044;48.298;10.008;2022-07-23T08:37:07;23.10;99.90
35962;DHT22;22044;48.298;10.008;2022-07-23T08:39:53;23.00;99.90
35962;DHT22;22044;48.298;10.008;2022-07-23T08:42:40;23.00;99.90
35962;DHT22;22044;48.298;10.008;2022-07-23T08:45:26;22.90;99.90
35962;DHT22;22044;48.298;10.008;2022-07-23T08:48:14;22.90;99.90
35962;DHT22;22044;48.298;10.008;2022-07-23T08:51:01;22.80;99.90
35962;DHT22;22044;48.298;10.008;2022-07-23T08:53:49;22.70;99.90
35962;DHT22;22044;48.298;10.008;2022-07-23T08:56:35;22.50;99.90
35962;DHT22;22044;48.298;10.008;2022-07-23T08:59:21;22.80;99.90
35962;DHT22;22044;48.298;10.008;2022-07-23T09:02:06;22.90;99.90
35962;DHT22;22044;48.298;10.008;2022-07-23T09:04:52;23.00;99.90
35962;DHT22;22044;48.298;10.008;2022-07-23T09:08:02;23.10;99.90
35962;DHT22;22044;48.298;10.008;2022-07-23T09:10:48;23.20;99.90
35962;DHT22;22044;48.298;10.008;2022-07-23T09:13:36;23.20;99.90
35962;DHT22;22044;48.298;10.008;2022-07-23T09:16:25;23.30;99.90
35962;DHT22;22044;48.298;10.008;2022-07-23T09:19:11;23.50;99.90
35962;DHT22;22044;48.298;10.008;2022-07-23T09:22:16;23.80;99.90
35962;DHT22;22044;48.298;10.008;2022-07-23T09:25:05;23.90;99.90
35962;DHT22;22044;48.298;10.008;2022-07-23T09:27:55;23.80;99.90
35962;DHT22;22044;48.298;10.008;2022-07-23T09:30:41;23.60;99.90
35962;DHT22;22044;48.298;10.008;2022-07-23T09:33:34;23.70;99.90
35962;DHT22;22044;48.298;10.008;2022-07-23T09:36:29;23.70;99.90
35962;DHT22;22044;48.298;10.008;2022-07-23T09:39:22;23.50;99.90
35962;DHT22;22044;48.298;10.008;2022-07-23T09:42:15;23.60;99.90
35962;DHT22;22044;48.298;10.008;2022-07-23T09:45:03;23.60;99.90
35962;DHT22;22044;48.298;10.008;2022-07-23T09:47:49;23.50;99.90
35962;DHT22;22044;48.298;10.008;2022-07-23T09:50:34;23.60;99.90
35962;DHT22;22044;48.298;10.008;2022-07-23T09:53:24;23.80;99.90
35962;DHT22;22044;48.298;10.008;2022-07-23T09:56:12;24.00;99.90
35962;DHT22;22044;48.298;10.008;2022-07-23T09:59:00;24.10;99.90
35962;DHT22;22044;48.298;10.008;2022-07-23T10:01:52;24.30;99.90
35962;DHT22;22044;48.298;10.008;2022-07-23T10:04:39;24.30;99.90
35962;DHT22;22044;48.298;10.008;2022-07-23T10:07:37;24.30;99.90
35962;DHT22;22044;48.298;10.008;2022-07-23T10:10:44;24.30;99.90
35962;DHT22;22044;48.298;10.008;2022-07-23T10:13:53;24.40;99.90
35962;DHT22;22044;48.298;10.008;2022-07-23T10:16:59;24.60;99.90
35962;DHT22;22044;48.298;10.008;2022-07-23T10:19:45;24.90;99.90
35962;DHT22;22044;48.298;10.008;2022-07-23T10:22:34;24.90;99.90
35962;DHT22;22044;48.298;10.008;2022-07-23T10:25:26;25.00;99.90
35962;DHT22;22044;48.298;10.008;2022-07-23T10:28:40;25.00;99.90
35962;DHT22;22044;48.298;10.008;2022-07-23T10:31:37;25.20;99.90
35962;DHT22;22044;48.298;10.008;2022-07-23T10:34:34;25.00;99.90
35962;DHT22;22044;48.298;10.008;2022-07-23T10:37:27;25.00;99.90
35962;DHT22;22044;48.298;10.008;2022-07-23T10:40:15;24.90;99.90
35962;DHT22;22044;48.298;10.008;2022-07-23T10:43:01;25.00;99.90
35962;DHT22;22044;48.298;10.008;2022-07-23T10:45:47;25.20;99.90
35962;DHT22;22044;48.298;10.008;2022-07-23T10:48:33;25.40;99.90
35962;DHT22;22044;48.298;10.008;2022-07-23T10:51:20;25.50;99.90
35962;DHT22;22044;48.298;10.008;2022-07-23T10:54:21;25.50;99.90
35962;DHT22;22044;48.298;10.008;2022-07-23T10:57:08;25.50;99.90
35962;DHT22;22044;48.298;10.008;2022-07-23T11:00:20;25.40;99.90
35962;DHT22;22044;48.298;10.008;2022-07-23T11:03:28;25.50;99.90
35962;DHT22;22044;48.298;10.008;2022-07-23T11:06:14;25.70;99.90
35962;DHT22;22044;48.298;10.008;2022-07-23T11:09:25;25.70;99.90
35962;DHT22;22044;48.298;10.008;2022-07-23T11:12:33;25.80;99.90
35962;DHT22;22044;48.298;10.008;2022-07-23T11:15:19;26.00;99.90
35962;DHT22;22044;48.298;10.008;2022-07-23T11:18:04;26.10;99.90
35962;DHT22;22044;48.298;10.008;2022-07-23T11:20:50;26.10;99.90
35962;DHT22;22044;48.298;10.008;2022-07-23T11:23:58;26.30;99.90
35962;DHT22;22044;48.298;10.008;2022-07-23T11:26:48;26.60;99.90
35962;DHT22;22044;48.298;10.008;2022-07-23T11:29:58;26.60;99.90
35962;DHT22;22044;48.298;10.008;2022-07-23T11:32:43;26.60;99.90
35962;DHT22;22044;48.298;10.008;2022-07-23T11:35:29;26.70;99.90
35962;DHT22;22044;48.298;10.008;2022-07-23T11:38:18;26.80;99.90
35962;DHT22;22044;48.298;10.008;2022-07-23T11:41:03;26.40;99.90
35962;DHT22;22044;48.298;10.008;2022-07-23T11:43:51;26.20;99.90
35962;DHT22;22044;48.298;10.008;2022-07-23T11:46:36;26.60;99.90
35962;DHT22;22044;48.298;10.008;2022-07-23T11:49:22;26.80;99.90
35962;DHT22;22044;48.298;10.008;2022-07-23T11:52:10;27.00;99.90
35962;DHT22;22044;48.298;10.008;2022-07-23T11:54:59;27.10;99.90
35962;DHT22;22044;48.298;10.008;2022-07-23T11:57:45;26.60;99.90
35962;DHT22;22044;48.298;10.008;2022-07-23T12:00:32;26.40;99.90
35962;DHT22;22044;48.298;10.008;2022-07-23T12:03:18;26.70;99.90
35962;DHT22;22044;48.298;10.008;2022-07-23T12:06:04;26.30;99.90
35962;DHT22;22044;48.298;10.008;2022-07-23T12:08:49;26.30;99.90
35962;DHT22;22044;48.298;10.008;2022-07-23T12:11:35;26.40;99.90
35962;DHT22;22044;48.298;10.008;2022-07-23T12:14:21;26.70;99.90
35962;DHT22;22044;48.298;10.008;2022-07-23T12:17:08;26.50;99.90
35962;DHT22;22044;48.298;10.008;2022-07-23T12:19:55;25.90;99.90
35962;DHT22;22044;48.298;10.008;2022-07-23T12:22:42;25.80;99.90
35962;DHT22;22044;48.298;10.008;2022-07-23T12:25:30;25.90;99.90
35962;DHT22;22044;48.298;10.008;2022-07-23T12:28:17;26.50;99.90
35962;DHT22;22044;48.298;10.008;2022-07-23T12:31:04;26.70;99.90
35962;DHT22;22044;48.298;10.008;2022-07-23T12:33:51;26.90;99.90
35962;DHT22;22044;48.298;10.008;2022-07-23T12:36:37;27.00;99.90
35962;DHT22;22044;48.298;10.008;2022-07-23T12:39:30;26.80;99.90
35962;DHT22;22044;48.298;10.008;2022-07-23T12:42:16;26.90;99.90
35962;DHT22;22044;48.298;10.008;2022-07-23T12:45:08;26.80;99.90
35962;DHT22;22044;48.298;10.008;2022-07-23T12:48:00;26.80;99.90
35962;DHT22;22044;48.298;10.008;2022-07-23T12:50:57;26.70;99.90
35962;DHT22;22044;48.298;10.008;2022-07-23T12:53:45;26.60;99.90
35962;DHT22;22044;48.298;10.008;2022-07-23T12:56:34;26.60;99.90
35962;DHT22;22044;48.298;10.008;2022-07-23T12:59:19;26.70;99.90
35962;DHT22;22044;48.298;10.008;2022-07-23T13:02:08;26.50;99.90
35962;DHT22;22044;48.298;10.008;2022-07-23T13:04:54;26.50;99.90
35962;DHT22;22044;48.298;10.008;2022-07-23T13:07:41;26.10;99.90
35962;DHT22;22044;48.298;10.008;2022-07-23T13:10:27;25.60;99.90
35962;DHT22;22044;48.298;10.008;2022-07-23T13:13:12;25.80;99.90
35962;DHT22;22044;48.298;10.008;2022-07-23T13:15:59;26.10;99.90
35962;DHT22;22044;48.298;10.008;2022-07-23T13:18:44;26.20;99.90
35962;DHT22;22044;48.298;10.008;2022-07-23T13:21:30;26.30;99.90
35962;DHT22;22044;48.298;10.008;2022-07-23T13:24:17;26.50;99.90
35962;DHT22;22044;48.298;10.008;2022-07-23T13:27:02;26.80;99.90
35962;DHT22;22044;48.298;10.008;2022-07-23T13:29:49;27.20;99.90
35962;DHT22;22044;48.298;10.008;2022-07-23T13:32:35;27.30;99.90
35962;DHT22;22044;48.298;10.008;2022-07-23T13:35:21;27.20;99.90
35962;DHT22;22044;48.298;10.008;2022-07-23T13:38:07;27.10;99.90
35962;DHT22;22044;48.298;10.008;2022-07-23T13:40:54;27.00;99.90
35962;DHT22;22044;48.298;10.008;2022-07-23T13:43:40;26.90;99.90
35962;DHT22;22044;48.298;10.008;2022-07-23T13:46:25;26.90;99.90
35962;DHT22;22044;48.298;10.008;2022-07-23T13:49:11;26.80;99.90
35962;DHT22;22044;48.298;10.008;2022-07-23T13:51:57;26.80;99.90
35962;DHT22;22044;48.298;10.008;2022-07-23T13:54:43;26.80;99.90
35962;DHT22;22044;48.298;10.008;2022-07-23T13:57:30;26.70;99.90
35962;DHT22;22044;48.298;10.008;2022-07-23T14:00:16;26.70;99.90
35962;DHT22;22044;48.298;10.008;2022-07-23T14:03:02;26.60;99.90
35962;DHT22;22044;48.298;10.008;2022-07-23T14:05:48;26.60;99.90
35962;DHT22;22044;48.298;10.008;2022-07-23T14:08:33;26.40;99.90
35962;DHT22;22044;48.298;10.008;2022-07-23T14:11:19;26.40;99.90
35962;DHT22;22044;48.298;10.008;2022-07-23T14:14:06;26.40;99.90
35962;DHT22;22044;48.298;10.008;2022-07-23T14:16:52;26.40;99.90
35962;DHT22;22044;48.298;10.008;2022-07-23T14:19:37;26.30;99.90
35962;DHT22;22044;48.298;10.008;2022-07-23T14:22:23;26.10;99.90
35962;DHT22;22044;48.298;10.008;2022-07-23T14:25:10;25.80;99.90
35962;DHT22;22044;48.298;10.008;2022-07-23T14:27:55;25.00;99.90
35962;DHT22;22044;48.298;10.008;2022-07-23T14:30:42;24.40;99.90
35962;DHT22;22044;48.298;10.008;2022-07-23T14:33:28;23.80;99.90
35962;DHT22;22044;48.298;10.008;2022-07-23T14:36:13;23.10;99.90
35962;DHT22;22044;48.298;10.008;2022-07-23T14:38:59;23.10;99.90
35962;DHT22;22044;48.298;10.008;2022-07-23T14:41:45;22.90;99.90
35962;DHT22;22044;48.298;10.008;2022-07-23T14:44:31;22.70;99.90
35962;DHT22;22044;48.298;10.008;2022-07-23T14:47:18;22.60;99.90
35962;DHT22;22044;48.298;10.008;2022-07-23T14:50:05;22.80;99.90
35962;DHT22;22044;48.298;10.008;2022-07-23T14:52:50;23.00;99.90
35962;DHT22;22044;48.298;10.008;2022-07-23T14:55:36;23.30;99.90
35962;DHT22;22044;48.298;10.008;2022-07-23T14:58:22;23.30;99.90
35962;DHT22;22044;48.298;10.008;2022-07-23T15:01:07;23.00;99.90
35962;DHT22;22044;48.298;10.008;2022-07-23T15:03:54;22.80;99.90
35962;DHT22;22044;48.298;10.008;2022-07-23T15:06:40;23.00;99.90
35962;DHT22;22044;48.298;10.008;2022-07-23T15:09:26;22.90;99.90
35962;DHT22;22044;48.298;10.008;2022-07-23T15:12:11;23.10;99.90
35962;DHT22;22044;48.298;10.008;2022-07-23T15:14:57;23.20;99.90
35962;DHT22;22044;48.298;10.008;2022-07-23T15:17:43;23.10;99.90
35962;DHT22;22044;48.298;10.008;2022-07-23T15:20:30;23.10;99.90
35962;DHT22;22044;48.298;10.008;2022-07-23T15:23:16;23.40;99.90
35962;DHT22;22044;48.298;10.008;2022-07-23T15:26:01;23.60;99.90
35962;DHT22;22044;48.298;10.008;2022-07-23T15:28:47;23.80;99.90
35962;DHT22;22044;48.298;10.008;2022-07-23T15:31:33;23.80;99.90
35962;DHT22;22044;48.298;10.008;2022-07-23T15:34:18;24.00;99.90
35962;DHT22;22044;48.298;10.008;2022-07-23T15:37:06;24.30;99.90
35962;DHT22;22044;48.298;10.008;2022-07-23T15:39:52;24.20;99.90
35962;DHT22;22044;48.298;10.008;2022-07-23T15:42:37;24.30;99.90
35962;DHT22;22044;48.298;10.008;2022-07-23T15:45:23;24.20;99.90
35962;DHT22;22044;48.298;10.008;2022-07-23T15:48:08;24.20;99.90
35962;DHT22;22044;48.298;10.008;2022-07-23T15:50:54;24.30;99.90
35962;DHT22;22044;48.298;10.008;2022-07-23T15:53:41;24.30;99.90
35962;DHT22;22044;48.298;10.008;2022-07-23T15:56:26;24.40;99.90
35962;DHT22;22044;48.298;10.008;2022-07-23T15:59:12;24.20;99.90
35962;DHT22;22044;48.298;10.008;2022-07-23T16:01:58;24.00;99.90
35962;DHT22;22044;48.298;10.008;2022-07-23T16:04:43;24.00;99.90
35962;DHT22;22044;48.298;10.008;2022-07-23T16:07:28;24.20;99.90
35962;DHT22;22044;48.298;10.008;2022-07-23T16:10:17;24.20;99.90
35962;DHT22;22044;48.298;10.008;2022-07-23T16:13:04;24.20;99.90
35962;DHT22;22044;48.298;10.008;2022-07-23T16:15:50;24.40;99.90
35962;DHT22;22044;48.298;10.008;2022-07-23T16:18:37;24.70;99.90
35962;DHT22;22044;48.298;10.008;2022-07-23T16:21:24;25.00;99.90
35962;DHT22;22044;48.298;10.008;2022-07-23T16:24:10;25.10;99.90
35962;DHT22;22044;48.298;10.008;2022-07-23T16:26:58;25.50;99.90
35962;DHT22;22044;48.298;10.008;2022-07-23T16:29:44;25.70;99.90
35962;DHT22;22044;48.298;10.008;2022-07-23T16:32:30;25.70;99.90
35962;DHT22;22044;48.298;10.008;2022-07-23T16:35:15;25.60;99.90
35962;DHT22;22044;48.298;10.008;2022-07-23T16:38:01;25.70;99.90
35962;DHT22;22044;48.298;10.008;2022-07-23T16:40:47;25.80;99.90
35962;DHT22;22044;48.298;10.008;2022-07-23T16:43:37;26.10;99.90
35962;DHT22;22044;48.298;10.008;2022-07-23T16:46:22;26.30;99.90
35962;DHT22;22044;48.298;10.008;2022-07-23T16:49:08;26.50;99.90
35962;DHT22;22044;48.298;10.008;2022-07-23T16:51:54;26.60;99.90
35962;DHT22;22044;48.298;10.008;2022-07-23T16:54:40;26.90;99.90
35962;DHT22;22044;48.298;10.008;2022-07-23T16:57:26;26.80;99.90
35962;DHT22;22044;48.298;10.008;2022-07-23T17:00:14;26.90;99.90
35962;DHT22;22044;48.298;10.008;2022-07-23T17:02:59;27.10;99.90
35962;DHT22;22044;48.298;10.008;2022-07-23T17:05:45;27.10;99.90
35962;DHT22;22044;48.298;10.008;2022-07-23T17:08:30;27.20;99.90
35962;DHT22;22044;48.298;10.008;2022-07-23T17:11:16;27.00;99.90
35962;DHT22;22044;48.298;10.008;2022-07-23T17:14:03;26.80;99.90
35962;DHT22;22044;48.298;10.008;2022-07-23T17:16:50;27.00;99.90
35962;DHT22;22044;48.298;10.008;2022-07-23T17:19:36;27.20;99.90
35962;DHT22;22044;48.298;10.008;2022-07-23T17:22:21;27.20;99.90